Terminal Aerodrome Forecast
Issued by NWS Sterling, VA

Current Version | Previous Version | Text Only | Print | Product List | Glossary Off
Versions: 1 2 3 4 5 6 7 8 9 10 11 12 13 14 15 16 17 18 19 20 21 22 23 24 25 26 27 28 29 30 31 32 33 34

286
FTUS41 KLWX 180856 AAB
TAFIAD
TAF AMD
KIAD 180856Z 1809/1912 VRB04KT 6SM BR BKN008
     FM181300 20006KT P6SM BKN090
     FM181600 20008G16KT P6SM SCT090
     FM182100 24008G16KT P6SM -SHRA VCTS OVC050CB
     FM190100 VRB04KT P6SM BKN050
     FM190600 VRB03KT 5SM BR SCT200=

USA.gov is the U.S. government's official web portal to all federal, state and local government web resources and services.